Monitor, Oregon
Current Conditions -  °F | °C
As of 7:53 AM on Friday 24 Oct 2014 (Local Time) from KUAO Reporting Station
Clear Clear  
Wind Chill: 49°   Ceiling: Unl
Heat Index: 49°   Visibility: 10mi
Dew Point: 48°   Wind: 3mph
Humidity: 97%   Direction: 40°NE
Pressure: 30"   Gusts: NA
Location:  45.1385°N, 122.835°W
Report Text: KUAO 241453Z AUTO 04003KT 10SM CLR 09/09 A3000 RMK AO2 SLP160 T00940089 56009
Loading
Personal Weather Stations






























Interactive Weather Map
Tropical Storm Tracking
New forecast layout! Learn more

10-Day Weather Forecast

Advertisements
Track Severe Weather on mobile